Time;durP1;ratioP1;P1;durP2;ratioP2;P2;SDS_P1;SDS_P2;PMS_P1;PMS_P2;Temp;Humidity;BMP_temperature;BMP_pressure;BME280_temperature;BME280_humidity;BME280_pressure;Samples;Min_cycle;Max_cycle;Signal;HPM_P1;HPM_P2
2023/09/23 00:01:37;;;;;;;14.98;6.00;;;25.30;97.70;;;;;;4997412;28;20038;-53
2023/09/23 00:04:03;;;;;;;17.42;4.90;;;25.40;97.80;;;;;;4996936;28;20039;-53
2023/09/23 00:06:29;;;;;;;19.92;5.63;;;25.30;98.10;;;;;;4962672;28;20043;-53
2023/09/23 00:08:55;;;;;;;16.02;4.97;;;25.30;97.80;;;;;;4996689;28;20045;-53
2023/09/23 00:11:21;;;;;;;15.18;5.65;;;25.30;97.90;;;;;;4996921;28;20042;-52
2023/09/23 00:13:47;;;;;;;18.50;4.80;;;25.20;97.90;;;;;;4996912;28;20023;-52
2023/09/23 00:16:16;;;;;;;25.65;5.47;;;25.30;97.90;;;;;;4997072;28;20066;-52
2023/09/23 00:18:43;;;;;;;18.10;5.30;;;25.30;98.00;;;;;;4996615;28;20386;-53
2023/09/23 00:21:09;;;;;;;16.98;5.20;;;25.30;97.90;;;;;;4996471;28;20030;-53
2023/09/23 00:23:35;;;;;;;19.70;5.88;;;25.20;98.00;;;;;;4996955;28;20536;-52
2023/09/23 00:26:02;;;;;;;21.48;5.40;;;25.30;98.00;;;;;;4996841;28;20027;-53
2023/09/23 00:28:29;;;;;;;16.05;5.45;;;25.20;98.00;;;;;;4996588;28;20391;-52
2023/09/23 00:31:02;;;;;;;23.27;5.15;;;;;;;;;;4996490;28;20061;-53
2023/09/23 00:33:30;;;;;;;15.88;4.97;;;;;;;;;;4996609;28;20034;-52
2023/09/23 00:35:56;;;;;;;21.80;5.57;;;24.90;99.90;;;;;;4996676;28;20041;-53
2023/09/23 00:38:22;;;;;;;18.98;5.45;;;25.00;99.90;;;;;;4995761;28;20101;-53
2023/09/23 00:40:48;;;;;;;15.68;4.55;;;25.00;99.90;;;;;;4995793;28;20485;-52
2023/09/23 00:43:17;;;;;;;15.43;5.47;;;25.10;99.90;;;;;;4996500;28;20113;-53
2023/09/23 00:45:48;;;;;;;17.83;5.15;;;25.00;99.90;;;;;;4996128;28;20565;-53
2023/09/23 00:48:21;;;;;;;21.92;6.13;;;;;;;;;;4996080;28;20088;-53
2023/09/23 00:50:47;;;;;;;18.88;5.72;;;;;;;;;;4978709;28;20109;-52
2023/09/23 00:53:13;;;;;;;19.08;5.60;;;;;;;;;;4996178;28;20429;-53
2023/09/23 00:55:47;;;;;;;17.90;4.80;;;;;;;;;;4995880;28;20045;-52
2023/09/23 00:58:14;;;;;;;16.52;6.65;;;;;;;;;;4996368;28;20030;-53
2023/09/23 01:00:48;;;;;;;14.23;5.25;;;;;;;;;;4996166;28;20034;-52
2023/09/23 01:03:15;;;;;;;16.70;5.63;;;;;;;;;;4995806;28;20037;-53
2023/09/23 01:05:41;;;;;;;15.27;5.07;;;;;;;;;;4995990;28;20037;-53
2023/09/23 01:08:11;;;;;;;18.33;5.15;;;;;;;;;;4996119;28;20034;-53
2023/09/23 01:10:37;;;;;;;20.27;5.60;;;;;;;;;;4996020;28;20374;-53
2023/09/23 01:13:06;;;;;;;17.17;5.65;;;;;;;;;;4995675;28;20085;-52
2023/09/23 01:15:32;;;;;;;22.30;6.35;;;;;;;;;;4995611;28;20034;-53
2023/09/23 01:17:58;;;;;;;19.50;5.82;;;;;;;;;;4995776;28;20035;-53
2023/09/23 01:20:25;;;;;;;20.92;5.30;;;;;;;;;;4995421;28;20026;-54
2023/09/23 01:22:54;;;;;;;18.02;5.53;;;24.80;98.40;;;;;;4995688;28;20036;-53
2023/09/23 01:25:21;;;;;;;20.77;5.80;;;24.80;98.60;;;;;;4995419;28;20038;-53
2023/09/23 01:27:47;;;;;;;16.60;4.93;;;24.80;98.40;;;;;;4995445;28;20038;-53
2023/09/23 01:30:13;;;;;;;20.70;5.03;;;24.90;98.40;;;;;;4995134;28;20389;-53
2023/09/23 01:32:50;;;;;;;17.63;5.40;;;25.00;98.40;;;;;;4995211;28;20022;-53
2023/09/23 01:35:16;;;;;;;19.77;5.30;;;25.00;98.30;;;;;;4995152;28;20038;-53
2023/09/23 01:37:45;;;;;;;17.52;5.50;;;25.00;98.10;;;;;;4995134;28;20543;-53
2023/09/23 01:40:18;;;;;;;15.90;5.40;;;25.10;98.10;;;;;;4995144;28;20497;-53
2023/09/23 01:42:44;;;;;;;20.13;4.72;;;25.20;98.20;;;;;;4995128;28;20061;-52
2023/09/23 01:45:12;;;;;;;18.33;5.38;;;25.10;97.90;;;;;;4994985;28;20095;-53
2023/09/23 01:47:41;;;;;;;18.30;4.70;;;25.10;97.90;;;;;;4994967;28;20423;-52
2023/09/23 01:50:10;;;;;;;17.42;5.45;;;25.10;98.00;;;;;;4995024;28;20042;-53
2023/09/23 01:52:40;;;;;;;12.98;4.95;;;25.20;97.90;;;;;;4994768;28;20069;-53
2023/09/23 01:55:09;;;;;;;16.23;4.63;;;25.20;97.90;;;;;;4976853;28;20057;-52
2023/09/23 01:57:35;;;;;;;19.55;4.93;;;25.30;97.80;;;;;;4994949;28;20030;-53
2023/09/23 02:00:04;;;;;;;16.15;5.18;;;25.30;97.80;;;;;;4994992;28;20037;-53
2023/09/23 02:02:30;;;;;;;16.98;4.93;;;25.20;97.80;;;;;;4994617;28;20482;-53
2023/09/23 02:04:56;;;;;;;14.57;5.00;;;25.10;97.90;;;;;;4994605;28;20073;-53
2023/09/23 02:07:22;;;;;;;13.32;4.90;;;25.10;98.00;;;;;;4994849;28;20077;-53
2023/09/23 02:09:48;;;;;;;18.20;5.18;;;25.10;98.00;;;;;;4994663;28;20030;-53
2023/09/23 02:12:14;;;;;;;15.60;5.10;;;25.10;97.80;;;;;;4994593;28;20375;-53
2023/09/23 02:14:40;;;;;;;26.20;6.32;;;25.10;97.90;;;;;;4994580;28;20026;-53
2023/09/23 02:17:06;;;;;;;15.38;4.68;;;25.10;98.00;;;;;;4994468;28;20034;-53
2023/09/23 02:19:32;;;;;;;18.98;4.85;;;25.10;98.00;;;;;;4994466;28;20036;-53
2023/09/23 02:21:58;;;;;;;16.15;5.65;;;25.10;98.10;;;;;;4994813;28;20042;-53
2023/09/23 02:24:23;;;;;;;14.90;5.93;;;25.20;98.30;;;;;;4960160;28;20541;-54
2023/09/23 02:26:49;;;;;;;17.10;5.13;;;25.20;98.10;;;;;;4994654;28;20080;-53
2023/09/23 02:29:15;;;;;;;18.15;5.43;;;25.30;98.40;;;;;;4994189;28;20080;-52
2023/09/23 02:31:46;;;;;;;19.77;5.75;;;25.30;98.30;;;;;;4994099;28;20053;-53
2023/09/23 02:34:16;;;;;;;20.53;5.23;;;25.20;98.50;;;;;;4994291;28;20038;-53
2023/09/23 02:36:45;;;;;;;22.48;6.00;;;25.20;98.20;;;;;;4994248;28;20038;-53
2023/09/23 02:39:19;;;;;;;16.05;5.32;;;25.00;98.40;;;;;;4994222;28;20748;-52
2023/09/23 02:41:49;;;;;;;18.70;5.65;;;24.80;98.70;;;;;;4994241;28;20031;-53
2023/09/23 02:44:20;;;;;;;15.93;5.30;;;24.80;99.00;;;;;;4994330;28;20030;-53
2023/09/23 02:46:46;;;;;;;23.83;6.75;;;24.80;99.10;;;;;;4993815;28;20026;-53
2023/09/23 02:49:13;;;;;;;16.13;6.70;;;24.70;99.40;;;;;;4943977;28;20050;-53
2023/09/23 02:51:41;;;;;;;20.38;7.15;;;24.70;99.40;;;;;;4993811;28;20101;-53
2023/09/23 02:54:08;;;;;;;21.25;6.90;;;24.60;99.50;;;;;;4994154;28;20034;-53
2023/09/23 02:56:34;;;;;;;15.43;6.22;;;24.70;99.60;;;;;;4960059;28;20050;-54
2023/09/23 02:59:02;;;;;;;15.68;5.65;;;24.50;99.60;;;;;;4993982;28;20030;-52
2023/09/23 03:01:27;;;;;;;20.13;6.22;;;24.40;99.70;;;;;;4993725;28;20034;-53
2023/09/23 03:03:55;;;;;;;16.50;5.57;;;24.60;99.50;;;;;;4993554;28;20080;-53
2023/09/23 03:06:22;;;;;;;15.23;6.30;;;24.60;99.90;;;;;;4993846;28;20034;-52
2023/09/23 03:08:53;;;;;;;22.77;7.10;;;24.70;99.80;;;;;;4993483;28;20516;-53
2023/09/23 03:11:20;;;;;;;19.15;6.82;;;24.60;99.90;;;;;;4993715;28;20478;-53
2023/09/23 03:13:46;;;;;;;16.90;7.15;;;24.60;99.60;;;;;;4993756;28;20031;-53
2023/09/23 03:16:14;;;;;;;17.50;6.70;;;24.50;99.80;;;;;;4993715;28;20034;-52
2023/09/23 03:18:59;;;;;;;24.38;5.88;;;24.30;99.60;;;;;;4993814;28;20154;-53
2023/09/23 03:21:25;;;;;;;20.08;6.43;;;24.20;99.80;;;;;;4993787;28;20030;-53
2023/09/23 03:23:51;;;;;;;18.77;6.63;;;24.10;99.90;;;;;;4993528;28;20367;-53
2023/09/23 03:26:19;;;;;;;18.40;6.68;;;24.10;99.90;;;;;;4959636;28;20084;-52
2023/09/23 03:28:46;;;;;;;17.73;6.63;;;24.10;99.90;;;;;;4975447;28;20111;-53
2023/09/23 03:31:14;;;;;;;20.27;8.38;;;24.30;99.90;;;;;;4993482;28;20402;-53
2023/09/23 03:33:42;;;;;;;24.15;7.05;;;24.40;99.90;;;;;;4960147;28;20049;-52
2023/09/23 03:36:14;;;;;;;17.20;6.45;;;24.20;99.90;;;;;;4993535;28;20046;-52
2023/09/23 03:38:40;;;;;;;20.08;7.20;;;24.00;99.90;;;;;;4993409;28;20046;-52
2023/09/23 03:41:08;;;;;;;17.45;6.07;;;23.80;99.90;;;;;;4993364;28;20394;-52
2023/09/23 03:43:33;;;;;;;18.92;7.03;;;23.80;99.90;;;;;;4993392;28;20022;-53
2023/09/23 03:45:59;;;;;;;17.92;7.03;;;23.70;99.90;;;;;;4993742;28;20375;-53
2023/09/23 03:48:25;;;;;;;21.48;6.65;;;23.80;99.90;;;;;;4993366;28;20104;-52
2023/09/23 03:50:54;;;;;;;18.75;6.75;;;24.00;99.90;;;;;;4975348;28;20375;-52
2023/09/23 03:53:21;;;;;;;19.27;6.18;;;24.10;99.90;;;;;;4975299;28;20046;-52
2023/09/23 03:55:49;;;;;;;21.92;7.03;;;24.80;99.90;;;;;;4993743;28;20528;-52
2023/09/23 03:58:17;;;;;;;23.13;6.60;;;24.20;99.90;;;;;;4993462;28;20104;-52
2023/09/23 04:00:44;;;;;;;19.92;6.65;;;24.20;99.90;;;;;;4993231;28;20037;-52
2023/09/23 04:03:10;;;;;;;21.55;6.85;;;24.00;99.90;;;;;;4993479;28;20037;-52
2023/09/23 04:05:36;;;;;;;20.02;5.85;;;24.10;99.90;;;;;;4993101;28;20034;-53
2023/09/23 04:08:02;;;;;;;17.42;6.07;;;23.90;99.90;;;;;;4993235;28;20038;-53
2023/09/23 04:10:28;;;;;;;21.35;6.93;;;23.90;99.90;;;;;;4993397;28;20376;-52
2023/09/23 04:12:55;;;;;;;18.80;5.82;;;23.90;99.90;;;;;;4993160;28;20110;-53
2023/09/23 04:15:27;;;;;;;17.27;7.38;;;23.80;99.90;;;;;;4995818;28;20034;-52
2023/09/23 04:17:52;;;;;;;25.33;6.72;;;23.70;99.90;;;;;;4996640;28;20475;-52
2023/09/23 04:20:18;;;;;;;18.40;6.60;;;23.60;99.90;;;;;;4996856;28;20076;-52
2023/09/23 04:22:48;;;;;;;22.67;6.75;;;;;;;;;;4979417;28;20496;-52
2023/09/23 04:25:14;;;;;;;20.38;7.32;;;;;;;;;;4996447;28;20034;-52
2023/09/23 04:27:41;;;;;;;21.73;7.22;;;;;;;;;;4962272;28;20084;-53
2023/09/23 04:30:11;;;;;;;19.42;6.18;;;23.20;99.90;;;;;;4996386;28;20030;-52
2023/09/23 04:32:41;;;;;;;23.05;8.52;;;23.20;99.90;;;;;;4996367;28;20501;-52
2023/09/23 04:35:16;;;;;;;19.52;6.65;;;23.10;99.90;;;;;;4996221;28;20073;-52
2023/09/23 04:37:42;;;;;;;23.52;7.15;;;23.30;99.90;;;;;;4962102;28;20042;-53
2023/09/23 04:40:10;;;;;;;20.88;6.60;;;23.40;99.90;;;;;;4996153;28;20049;-53
2023/09/23 04:42:41;;;;;;;29.70;7.20;;;23.50;99.90;;;;;;4996385;28;20073;-53
2023/09/23 04:45:09;;;;;;;16.65;6.93;;;23.50;99.90;;;;;;4996247;28;20018;-52
2023/09/23 04:47:35;;;;;;;22.15;6.50;;;23.50;99.90;;;;;;4996292;28;20034;-52
2023/09/23 04:50:05;;;;;;;27.10;7.45;;;23.50;99.90;;;;;;4996143;28;20065;-52
2023/09/23 04:52:33;;;;;;;17.52;6.72;;;23.40;99.90;;;;;;4996316;28;20040;-53
2023/09/23 04:55:00;;;;;;;18.17;7.10;;;23.50;99.90;;;;;;4996108;28;20065;-52
2023/09/23 04:57:26;;;;;;;22.85;8.18;;;23.60;99.90;;;;;;4977768;28;20042;-53
2023/09/23 04:59:52;;;;;;;22.05;6.68;;;23.50;99.90;;;;;;4996179;28;20045;-52
2023/09/23 05:02:18;;;;;;;19.77;7.43;;;23.40;99.90;;;;;;4993971;28;20402;-52
2023/09/23 05:04:45;;;;;;;19.83;7.18;;;23.30;99.90;;;;;;4995894;28;20113;-52
2023/09/23 05:07:12;;;;;;;27.70;8.63;;;23.50;99.90;;;;;;4995857;28;20482;-53
2023/09/23 05:09:39;;;;;;;18.25;7.40;;;23.50;99.90;;;;;;4995714;28;20034;-52
2023/09/23 05:12:05;;;;;;;19.83;7.85;;;23.60;99.90;;;;;;4995747;28;20042;-52
2023/09/23 05:14:30;;;;;;;26.33;8.50;;;23.70;99.90;;;;;;4995534;28;20375;-53
2023/09/23 05:16:58;;;;;;;27.40;8.48;;;23.90;99.90;;;;;;4995787;28;20156;-53
2023/09/23 05:19:27;;;;;;;17.30;7.32;;;23.90;99.90;;;;;;4995550;28;20026;-54
2023/09/23 05:21:53;;;;;;;21.83;8.68;;;24.00;99.90;;;;;;4995500;28;20045;-52
2023/09/23 05:24:19;;;;;;;24.13;7.68;;;23.70;99.90;;;;;;4995624;28;20031;-53
2023/09/23 05:26:47;;;;;;;17.90;8.18;;;23.80;99.90;;;;;;4995152;28;20113;-52
2023/09/23 05:29:13;;;;;;;20.02;7.82;;;23.70;99.90;;;;;;4994475;28;20031;-53
2023/09/23 05:31:39;;;;;;;22.25;9.43;;;23.50;99.90;;;;;;4989261;28;20141;-53
2023/09/23 05:34:05;;;;;;;18.95;8.85;;;23.60;99.90;;;;;;4995248;28;20031;-53
2023/09/23 05:36:31;;;;;;;20.33;6.90;;;23.70;99.90;;;;;;4994751;28;20351;-52
2023/09/23 05:38:58;;;;;;;20.60;6.78;;;23.60;99.90;;;;;;4994666;28;20041;-52
2023/09/23 05:41:25;;;;;;;24.25;6.38;;;23.40;99.90;;;;;;4991804;28;20027;-53
2023/09/23 05:43:52;;;;;;;18.40;6.65;;;23.30;99.90;;;;;;4990757;28;20041;-52
2023/09/23 05:46:18;;;;;;;21.17;7.60;;;23.20;99.90;;;;;;4994415;28;20037;-53
2023/09/23 05:48:51;;;;;;;19.88;7.03;;;23.20;99.90;;;;;;4991698;28;20031;-53
2023/09/23 05:51:16;;;;;;;20.17;7.68;;;23.40;99.90;;;;;;4991187;28;20081;-54
2023/09/23 05:53:43;;;;;;;22.25;7.70;;;23.60;99.90;;;;;;4911921;28;20030;-53
2023/09/23 05:56:08;;;;;;;23.10;7.43;;;23.80;99.90;;;;;;4972259;28;20046;-52
2023/09/23 05:58:34;;;;;;;20.10;9.38;;;24.00;99.90;;;;;;4971433;28;20074;-52
2023/09/23 06:01:00;;;;;;;19.15;8.63;;;24.10;99.90;;;;;;4972721;28;20035;-52
2023/09/23 06:03:26;;;;;;;21.77;9.35;;;;;;;;;;4972464;28;20528;-53
2023/09/23 06:05:52;;;;;;;19.23;7.55;;;24.50;99.90;;;;;;4972560;28;20170;-53
2023/09/23 06:08:18;;;;;;;21.02;7.88;;;24.40;99.90;;;;;;4964539;28;20066;-53
2023/09/23 06:10:44;;;;;;;22.02;7.90;;;24.40;99.90;;;;;;4972336;28;20516;-53
2023/09/23 06:13:09;;;;;;;24.80;8.35;;;24.30;99.90;;;;;;4939947;28;20642;-53
2023/09/23 06:15:35;;;;;;;25.90;7.40;;;24.50;99.90;;;;;;4971343;28;20047;-52
2023/09/23 06:18:01;;;;;;;25.35;8.38;;;24.20;99.90;;;;;;4924674;28;20050;-52
2023/09/23 06:20:27;;;;;;;25.17;7.88;;;24.00;99.90;;;;;;4972745;28;20038;-53
2023/09/23 06:22:53;;;;;;;23.08;7.20;;;23.90;99.90;;;;;;4973045;28;20121;-52
2023/09/23 06:25:20;;;;;;;24.85;8.15;;;24.40;99.90;;;;;;4972993;28;20602;-52
2023/09/23 06:27:46;;;;;;;20.60;7.53;;;24.80;99.90;;;;;;4981539;28;20046;-52
2023/09/23 06:30:15;;;;;;;25.88;8.77;;;25.00;99.90;;;;;;4974591;28;20031;-52
2023/09/23 06:32:42;;;;;;;24.45;7.70;;;24.80;99.90;;;;;;4941322;28;20063;-52
2023/09/23 06:35:09;;;;;;;13.70;7.05;;;24.60;99.90;;;;;;4974988;28;20026;-52
2023/09/23 06:37:35;;;;;;;20.55;7.43;;;24.50;99.90;;;;;;4911127;28;20051;-52
2023/09/23 06:40:01;;;;;;;18.05;5.97;;;24.40;99.90;;;;;;4988482;28;20484;-52
2023/09/23 06:42:27;;;;;;;17.58;6.38;;;24.30;99.90;;;;;;4993759;28;20034;-54
2023/09/23 06:44:52;;;;;;;21.17;7.00;;;24.20;99.90;;;;;;4993796;28;20026;-53
2023/09/23 06:47:20;;;;;;;25.60;6.20;;;;;;;;;;4994371;28;20026;-53
2023/09/23 06:49:45;;;;;;;25.08;7.82;;;24.00;99.90;;;;;;4944318;28;20109;-54
2023/09/23 06:52:12;;;;;;;28.42;8.10;;;24.00;99.90;;;;;;4993996;28;20588;-53
2023/09/23 06:54:38;;;;;;;26.75;6.70;;;23.90;99.90;;;;;;4993707;28;20109;-55
2023/09/23 06:57:04;;;;;;;26.38;6.93;;;24.00;99.90;;;;;;4994256;28;20046;-53
2023/09/23 06:59:30;;;;;;;15.80;5.78;;;24.10;99.90;;;;;;4994336;28;20026;-53
2023/09/23 07:01:55;;;;;;;18.60;7.10;;;24.20;99.90;;;;;;4943982;28;20034;-52
2023/09/23 07:04:21;;;;;;;22.58;5.47;;;24.40;99.90;;;;;;4993781;28;20118;-52
2023/09/23 07:06:47;;;;;;;14.55;4.28;;;24.50;99.90;;;;;;4993640;28;20076;-52
2023/09/23 07:09:13;;;;;;;13.88;3.60;;;24.30;99.90;;;;;;4994136;28;20470;-53
2023/09/23 07:11:40;;;;;;;13.77;3.58;;;24.30;99.90;;;;;;4993804;28;20034;-53
2023/09/23 07:14:05;;;;;;;14.02;4.20;;;24.40;99.90;;;;;;4993779;28;20110;-53
2023/09/23 07:16:33;;;;;;;14.55;3.92;;;24.40;99.90;;;;;;4993593;28;20541;-53
2023/09/23 07:19:00;;;;;;;14.82;4.22;;;24.70;99.90;;;;;;4993533;28;20030;-55
2023/09/23 07:21:26;;;;;;;14.75;3.33;;;25.10;99.90;;;;;;4993268;28;20042;-52
2023/09/23 07:23:52;;;;;;;5.72;1.40;;;25.10;99.90;;;;;;4993818;28;20048;-52
2023/09/23 07:26:20;;;;;;;15.60;2.75;;;24.80;99.90;;;;;;4943699;28;20394;-54
2023/09/23 07:28:46;;;;;;;8.15;2.35;;;25.00;99.90;;;;;;4993417;28;20467;-52
2023/09/23 07:31:12;;;;;;;11.32;2.58;;;25.30;99.90;;;;;;4975329;28;20065;-53
2023/09/23 07:33:38;;;;;;;4.05;1.67;;;;;;;;;;4990735;28;20081;-54
2023/09/23 07:36:14;;;;;;;11.00;3.22;;;25.70;99.90;;;;;;4990706;28;20182;-54
2023/09/23 07:38:40;;;;;;;6.10;1.33;;;25.70;99.90;;;;;;4990702;28;20378;-52
2023/09/23 07:41:07;;;;;;;4.45;1.15;;;25.80;99.90;;;;;;4993026;28;20034;-53
2023/09/23 07:43:33;;;;;;;5.97;1.63;;;25.70;99.90;;;;;;4989729;28;20064;-55
2023/09/23 07:45:59;;;;;;;6.80;1.90;;;;;;;;;;4948236;28;20070;-52
2023/09/23 07:48:25;;;;;;;2.00;1.05;;;25.90;99.90;;;;;;4982539;28;20022;-54
2023/09/23 07:50:51;;;;;;;7.35;1.80;;;25.80;99.90;;;;;;4988977;28;20033;-53
2023/09/23 07:53:17;;;;;;;5.30;1.67;;;25.90;99.90;;;;;;4987183;28;20061;-55
2023/09/23 07:55:43;;;;;;;4.63;1.48;;;26.10;99.90;;;;;;4985312;28;20078;-55
2023/09/23 07:58:10;;;;;;;3.97;1.10;;;;;;;;;;4982257;28;20085;-54
2023/09/23 08:00:37;;;;;;;5.47;1.15;;;26.70;99.90;;;;;;4990530;28;20034;-53
2023/09/23 08:03:03;;;;;;;2.30;1.13;;;26.80;99.80;;;;;;4985969;28;20066;-55
2023/09/23 08:05:29;;;;;;;3.22;1.27;;;26.80;99.80;;;;;;4940050;28;20092;-53
2023/09/23 08:07:55;;;;;;;3.63;1.35;;;26.70;98.90;;;;;;4989255;28;20474;-53
2023/09/23 08:10:21;;;;;;;2.65;1.38;;;26.80;99.10;;;;;;4985374;28;20086;-55
2023/09/23 08:12:47;;;;;;;4.55;1.50;;;26.90;98.90;;;;;;4983873;28;20034;-52
2023/09/23 08:15:13;;;;;;;2.80;1.23;;;27.00;98.60;;;;;;4990024;28;20051;-53
2023/09/23 08:17:39;;;;;;;1.77;0.95;;;27.10;98.50;;;;;;4952391;28;20049;-53
2023/09/23 08:20:20;;;;;;;5.28;0.93;;;26.90;98.00;;;;;;4982135;28;20110;-53
2023/09/23 08:22:46;;;;;;;1.15;0.55;;;27.10;98.30;;;;;;4985110;28;20042;-53
2023/09/23 08:25:15;;;;;;;4.15;1.00;;;27.20;98.00;;;;;;4979870;28;20033;-53
2023/09/23 08:27:42;;;;;;;4.43;1.27;;;27.70;98.10;;;;;;4985756;28;20030;-53
2023/09/23 08:30:11;;;;;;;2.80;1.10;;;;;;;;;;4988963;28;20479;-52
2023/09/23 08:32:37;;;;;;;2.47;1.00;;;;;;;;;;4991195;28;20053;-53
2023/09/23 08:35:05;;;;;;;5.00;1.13;;;28.70;99.90;;;;;;4987004;28;20038;-53
2023/09/23 08:37:31;;;;;;;9.75;2.35;;;28.60;96.90;;;;;;4985517;28;20027;-52
2023/09/23 08:39:57;;;;;;;3.80;1.60;;;28.40;96.80;;;;;;4979662;28;20023;-53
2023/09/23 08:42:25;;;;;;;5.25;1.20;;;;;;;;;;4985968;28;20498;-55
2023/09/23 08:44:51;;;;;;;3.35;1.00;;;28.80;96.40;;;;;;4987102;28;20030;-53
2023/09/23 08:47:17;;;;;;;4.57;1.48;;;;;;;;;;4983582;28;20113;-53
2023/09/23 08:49:45;;;;;;;4.15;1.30;;;;;;;;;;4985607;28;20030;-53
2023/09/23 08:52:12;;;;;;;3.05;1.00;;;;;;;;;;4990288;28;20035;-54
2023/09/23 08:54:38;;;;;;;3.67;1.25;;;30.00;95.70;;;;;;4970788;28;20035;-54
2023/09/23 08:57:05;;;;;;;9.23;1.55;;;;;;;;;;4988853;28;20352;-54
2023/09/23 08:59:32;;;;;;;3.97;1.85;;;;;;;;;;4986131;28;20030;-53
2023/09/23 09:01:58;;;;;;;4.80;1.23;;;;;;;;;;4983741;28;20085;-53
2023/09/23 09:04:24;;;;;;;2.33;1.38;;;31.50;99.70;;;;;;4985147;28;20031;-54
2023/09/23 09:06:54;;;;;;;6.78;1.55;;;;;;;;;;4989564;28;20026;-53
2023/09/23 09:09:21;;;;;;;4.88;1.25;;;;;;;;;;4987256;28;20077;-54
2023/09/23 09:11:48;;;;;;;4.13;1.83;;;32.80;96.90;;;;;;4974622;28;20038;-54
2023/09/23 09:14:18;;;;;;;2.22;1.33;;;;;;;;;;4937710;28;20487;-52
2023/09/23 09:16:45;;;;;;;6.18;1.55;;;32.80;94.00;;;;;;4981864;28;20047;-52
2023/09/23 09:19:11;;;;;;;2.72;1.38;;;34.60;93.80;;;;;;4984495;28;20448;-52
2023/09/23 09:21:37;;;;;;;2.53;1.33;;;34.90;93.80;;;;;;4984613;28;20172;-54
2023/09/23 09:24:06;;;;;;;4.00;2.25;;;;;;;;;;4953740;28;20070;-52
2023/09/23 09:26:33;;;;;;;4.95;1.80;;;;;;;;;;4983951;28;20030;-54
2023/09/23 09:28:59;;;;;;;3.97;1.50;;;;;;;;;;4976111;28;20129;-53
2023/09/23 09:31:29;;;;;;;2.45;1.40;;;;;;;;;;4979294;28;20050;-53
2023/09/23 09:33:57;;;;;;;5.05;1.77;;;;;;;;;;4985416;28;20065;-53
2023/09/23 09:36:24;;;;;;;5.90;1.63;;;35.80;92.10;;;;;;4953482;28;20051;-53
2023/09/23 09:38:51;;;;;;;7.45;1.63;;;;;;;;;;4936289;28;20046;-53
2023/09/23 09:41:24;;;;;;;4.13;1.60;;;36.60;95.20;;;;;;4986066;28;20046;-54
2023/09/23 09:43:50;;;;;;;2.65;1.25;;;36.30;91.40;;;;;;4989276;28;20023;-53
2023/09/23 09:46:20;;;;;;;5.63;1.73;;;37.00;91.30;;;;;;4989146;28;20035;-52
2023/09/23 09:48:48;;;;;;;6.30;2.00;;;;;;;;;;4984875;28;20121;-53
2023/09/23 09:51:16;;;;;;;3.10;1.45;;;37.50;93.50;;;;;;4988004;28;20027;-52
2023/09/23 09:53:44;;;;;;;4.18;1.67;;;;;;;;;;4987300;28;20533;-52
2023/09/23 09:56:10;;;;;;;5.93;1.63;;;36.50;92.40;;;;;;4980699;28;20403;-53
2023/09/23 09:58:41;;;;;;;5.88;1.88;;;36.30;90.30;;;;;;4978138;28;20118;-53
2023/09/23 10:01:13;;;;;;;3.67;1.60;;;35.90;90.50;;;;;;4950983;28;20122;-52
2023/09/23 10:03:51;;;;;;;6.00;1.83;;;36.70;90.50;;;;;;4985144;28;20470;-54
2023/09/23 10:06:26;;;;;;;9.90;1.95;;;36.80;90.50;;;;;;4981281;28;20125;-54
2023/09/23 10:08:53;;;;;;;9.68;2.33;;;36.60;89.10;;;;;;4985149;28;20486;-53
2023/09/23 10:11:34;;;;;;;10.80;2.15;;;36.60;89.10;;;;;;4985093;28;20039;-54
2023/09/23 10:14:17;;;;;;;7.00;1.80;;;36.10;89.10;;;;;;4978640;28;20030;-53
2023/09/23 10:16:59;;;;;;;9.82;2.35;;;36.70;89.60;;;;;;4988608;28;20051;-53
2023/09/23 10:19:55;;;;;;;6.35;2.08;;;36.70;89.80;;;;;;4956917;28;20050;-54
2023/09/23 10:22:23;;;;;;;4.75;2.00;;;37.40;90.40;;;;;;4966964;28;20560;-54
2023/09/23 10:25:19;;;;;;;190.73;175.15;;;37.60;90.20;;;;;;4988892;28;20037;-54
2023/09/23 10:27:59;;;;;;;8.50;3.35;;;37.20;89.40;;;;;;4966869;28;20039;-53
2023/09/23 10:30:26;;;;;;;7.38;3.40;;;36.10;88.90;;;;;;4976685;28;20446;-54
2023/09/23 10:32:52;;;;;;;8.82;3.35;;;36.70;89.50;;;;;;4987566;28;20030;-53
2023/09/23 10:35:23;;;;;;;9.40;3.33;;;36.90;89.70;;;;;;4993150;28;20502;-53
2023/09/23 10:37:49;;;;;;;14.27;3.45;;;36.60;88.60;;;;;;4954402;28;20046;-53
2023/09/23 10:40:17;;;;;;;9.88;3.20;;;36.80;89.90;;;;;;4982152;28;20027;-53
2023/09/23 10:42:46;;;;;;;7.28;2.50;;;36.50;89.70;;;;;;4989105;28;20165;-53
2023/09/23 10:45:14;;;;;;;6.70;2.20;;;;;;;;;;4982856;28;20426;-53
2023/09/23 10:47:40;;;;;;;7.80;2.65;;;;;;;;;;4981039;28;20070;-53
2023/09/23 10:50:10;;;;;;;11.32;2.97;;;35.80;89.20;;;;;;4983493;28;20393;-53
2023/09/23 10:52:36;;;;;;;11.48;3.20;;;;;;;;;;4932936;28;20049;-53
2023/09/23 10:55:02;;;;;;;11.05;3.30;;;34.40;90.00;;;;;;4989150;28;20096;-53
2023/09/23 10:57:28;;;;;;;13.05;2.97;;;34.30;90.30;;;;;;4982481;28;20038;-52
2023/09/23 10:59:55;;;;;;;13.48;2.75;;;35.00;90.90;;;;;;4947018;28;20081;-52
2023/09/23 11:02:22;;;;;;;15.75;3.70;;;34.60;90.40;;;;;;4982644;28;20063;-53
2023/09/23 11:04:49;;;;;;;10.25;4.93;;;35.20;90.90;;;;;;4979398;28;20426;-53
2023/09/23 11:07:16;;;;;;;9.20;4.18;;;35.80;90.60;;;;;;4985571;28;20026;-53
2023/09/23 11:09:45;;;;;;;20.73;4.25;;;35.30;90.50;;;;;;4986002;28;20380;-53
2023/09/23 11:12:15;;;;;;;12.23;3.28;;;35.10;90.40;;;;;;4989310;28;20046;-53
2023/09/23 11:14:48;;;;;;;9.80;3.30;;;34.40;90.50;;;;;;4949878;28;20049;-53
2023/09/23 11:17:29;;;;;;;15.13;3.35;;;34.40;90.70;;;;;;4943457;28;20057;-52
2023/09/23 11:19:59;;;;;;;11.73;3.53;;;34.60;91.00;;;;;;4943713;28;20032;-52
2023/09/23 11:22:29;;;;;;;17.40;3.92;;;35.40;91.60;;;;;;4913794;29;20843;-52
2023/09/23 11:24:56;;;;;;;16.05;3.80;;;35.80;90.90;;;;;;4917282;29;20496;-53
2023/09/23 11:27:23;;;;;;;12.70;3.17;;;34.90;90.60;;;;;;4916094;29;20350;-53
2023/09/23 11:29:50;;;;;;;14.32;3.95;;;34.80;90.60;;;;;;4918062;29;20051;-52
2023/09/23 11:32:23;;;;;;;13.10;3.60;;;35.20;90.60;;;;;;4916996;29;20396;-53
2023/09/23 11:34:50;;;;;;;11.40;3.70;;;35.10;90.40;;;;;;4915667;29;20028;-53
2023/09/23 11:37:17;;;;;;;13.30;3.40;;;34.90;90.60;;;;;;4915553;29;20048;-53
2023/09/23 11:39:42;;;;;;;12.25;3.95;;;35.30;90.60;;;;;;4915381;29;20432;-55
2023/09/23 11:42:08;;;;;;;14.13;3.58;;;35.10;90.60;;;;;;4915398;29;20087;-53
2023/09/23 11:44:34;;;;;;;13.20;3.50;;;35.60;90.50;;;;;;4917100;29;20028;-53
2023/09/23 11:47:00;;;;;;;18.58;3.80;;;35.00;90.40;;;;;;4916189;29;20080;-53
2023/09/23 11:49:26;;;;;;;14.68;3.90;;;35.40;90.50;;;;;;4916441;29;20058;-53
2023/09/23 11:51:52;;;;;;;14.65;3.15;;;35.30;90.70;;;;;;4922870;29;20491;-53
2023/09/23 11:54:18;;;;;;;17.67;4.20;;;35.60;91.20;;;;;;4961849;28;20078;-52
2023/09/23 11:56:43;;;;;;;17.50;3.72;;;36.00;90.50;;;;;;4969817;28;20074;-53
2023/09/23 11:59:14;;;;;;;9.93;3.15;;;36.30;90.40;;;;;;4951254;28;20034;-53
2023/09/23 12:01:40;;;;;;;11.23;3.50;;;36.10;90.50;;;;;;4971036;28;20165;-53
2023/09/23 12:04:06;;;;;;;18.13;4.70;;;35.50;90.80;;;;;;4957568;28;20130;-53
2023/09/23 12:06:36;;;;;;;9.70;3.40;;;35.60;90.70;;;;;;4966554;28;20725;-53
2023/09/23 12:09:03;;;;;;;18.55;4.95;;;35.40;90.80;;;;;;4968267;28;20078;-54
2023/09/23 12:11:30;;;;;;;17.35;3.80;;;35.60;90.90;;;;;;4946864;28;20040;-53
2023/09/23 12:13:56;;;;;;;12.05;3.88;;;36.00;91.30;;;;;;4970463;28;20038;-53
2023/09/23 12:16:22;;;;;;;13.90;4.57;;;36.20;91.00;;;;;;4965834;28;20466;-53
2023/09/23 12:18:48;;;;;;;15.43;4.50;;;36.20;90.70;;;;;;4970986;28;20027;-53
2023/09/23 12:21:17;;;;;;;14.13;4.13;;;36.40;90.70;;;;;;4967000;28;20031;-53
2023/09/23 12:23:43;;;;;;;16.27;4.18;;;36.00;90.50;;;;;;4968244;28;20070;-53
2023/09/23 12:26:12;;;;;;;10.40;3.97;;;35.90;90.50;;;;;;4970456;28;20519;-52
2023/09/23 12:28:38;;;;;;;14.02;3.72;;;36.30;90.90;;;;;;4965408;28;20050;-53
2023/09/23 12:31:04;;;;;;;13.85;3.35;;;35.70;90.80;;;;;;4978900;28;20059;-53
2023/09/23 12:33:30;;;;;;;9.45;3.15;;;35.10;90.20;;;;;;4971815;28;20490;-53
2023/09/23 12:35:56;;;;;;;9.32;3.03;;;34.80;90.50;;;;;;4963096;28;20039;-53
2023/09/23 12:38:22;;;;;;;12.45;4.38;;;34.80;90.40;;;;;;4966523;28;20046;-54
2023/09/23 12:40:48;;;;;;;12.27;3.70;;;34.50;90.10;;;;;;4937987;28;20039;-53
2023/09/23 12:43:13;;;;;;;14.50;3.35;;;34.30;90.50;;;;;;4973201;28;20030;-52
2023/09/23 12:45:41;;;;;;;13.65;3.53;;;34.30;90.30;;;;;;4953904;28;20070;-53
2023/09/23 12:48:10;;;;;;;11.57;4.00;;;34.20;90.70;;;;;;4964671;28;20039;-53
2023/09/23 12:50:36;;;;;;;9.43;3.20;;;33.70;90.40;;;;;;4966636;28;20478;-53
2023/09/23 12:53:02;;;;;;;18.27;4.10;;;33.60;90.30;;;;;;4968799;28;20030;-52
2023/09/23 12:55:28;;;;;;;14.10;3.58;;;33.30;90.20;;;;;;4967644;28;20086;-54
2023/09/23 12:57:55;;;;;;;12.15;3.70;;;33.00;90.10;;;;;;4965703;28;20031;-53